EGMC/SEN METAR and TAF weather

Enter ICAO airport designator
Station Type Date Time Source
EGMC METAR 2018/04/26 14:50 UTC NOAA

EGMC 261450Z 30010KT 270V330 9999 VCSH FEW015 SCT043 11/05 Q1015


Station Type Date Time Source
EGMC Decoded METAR 2018/04/26 14:50 UTC NOAA

Southend-On-Sea , United Kingdom (EGMC) 51-34N 000-42E
Apr 26, 2018 - 10:50 AM EDT / 2018.04.26 1450 UTC
Wind: from the WNW (300 degrees) at 12 MPH (10 KT) (direction variable):0
Visibility: greater than 7 mile(s):0
Sky conditions: partly cloudy
Weather: showers in the vicinity
Temperature: 51 F (11 C)
Dew Point: 41 F (5 C)
Relative Humidity: 66%
Pressure (altimeter): 29.97 in. Hg (1015 hPa)
ob: EGMC 261450Z 30010KT 270V330 9999 VCSH FEW015 SCT043 11/05 Q1015
cycle: 15

Station Type Date Time Source
EGMC TAF 2016/04/18 18:00 UTC NOAA

TAF EGMC 181658Z 1818/1903 28008KT 9999 BKN045


Example: see airport list